Página principal
METAR-TAF:

METAR-TAF

Aeroportos :

Irkutsk, Rússia

latitude: 52-16N, longitude: 104-19E, altura: 513 m

Observação actual do tempo

O boletim foi feito há 48 minutos, às 18:00 UTC
Vento 2 kt com direcção variável
Temperatura 7°C
Humidade 53%
Pressão 1013 hPa
Visibilidade 10 km ou mais
sem nuvens abaixo de 1500 metros e sem cumulonimbus

METAR: UIII 271800Z VRB01MPS CAVOK 07/M02 Q1013 R30/CLRD60 NOSIG RMK QFE715/0953

Hora: 02:48 (18:48 UTC)

Previsão

O boletim foi feito há 1 hora e 48 minutos, às 17:00 UTC
Previsão válida de 27 às 18 UTC a 28 às 18 UTC
Vento 6 kt de su-sudeste
Visibilidade 10 km ou mais

TAF: UIII 271700Z 2718/2818 16003MPS 9999 NSC

Observações e previsões do tempo de mais de 4000 aeroportos (mensagens METAR e TAF).

As estações disponíveis são os pontos amarelos e vermelhos sobre o mapa.

Mova o rato sobre o mapa para ver o nome da estação.

Depois clique no ponto para visualizar as observações e previsões meteorológicas.

Para alterar o mapa : clique nos botões verdes com uma cruz preta para aumentar o zoom; no botão verde com uma pitada de zoom; ou nas setas verdes para mapas adjacentes.


METAR-TAF: